createdAt,value
2022-08-18T00:01:13.411Z,10.60
2022-08-18T00:06:24.709Z,10.38
2022-08-18T00:08:57.193Z,11.18
2022-08-18T00:11:24.394Z,10.50
2022-08-18T00:13:51.515Z,11.50
2022-08-18T00:16:18.558Z,11.65
2022-08-18T00:18:45.623Z,11.02
2022-08-18T00:21:12.791Z,11.05
2022-08-18T00:23:39.898Z,10.43
2022-08-18T00:26:06.927Z,11.13
2022-08-18T00:28:33.975Z,12.52
2022-08-18T00:31:01.353Z,10.93
2022-08-18T00:33:28.423Z,10.88
2022-08-18T00:35:56.560Z,12.32
2022-08-18T00:38:25.300Z,11.95
2022-08-18T00:40:54.541Z,11.15
2022-08-18T00:43:27.453Z,11.98
2022-08-18T00:45:54.941Z,11.50
2022-08-18T00:48:24.010Z,11.57
2022-08-18T00:50:59.213Z,11.77
2022-08-18T00:53:37.943Z,11.43
2022-08-18T00:56:08.630Z,11.80
2022-08-18T00:58:43.427Z,11.95
2022-08-18T01:03:41.902Z,12.13
2022-08-18T01:06:27.301Z,11.80
2022-08-18T01:08:55.874Z,13.10
2022-08-18T01:11:23.244Z,12.90
2022-08-18T01:13:58.408Z,12.48
2022-08-18T01:16:52.348Z,13.02
2022-08-18T01:19:44.861Z,12.50
2022-08-18T01:22:35.229Z,11.75
2022-08-18T01:25:21.961Z,12.82
2022-08-18T01:27:57.046Z,12.38
2022-08-18T01:30:28.992Z,13.57
2022-08-18T01:32:57.559Z,12.07
2022-08-18T01:35:26.942Z,13.38
2022-08-18T01:37:55.124Z,12.00
2022-08-18T01:41:22.835Z,14.38
2022-08-18T01:43:12.992Z,12.90
2022-08-18T01:45:42.228Z,12.30
2022-08-18T01:48:09.534Z,13.27
2022-08-18T01:50:39.729Z,12.88
2022-08-18T01:53:08.042Z,12.95
2022-08-18T01:55:37.529Z,14.52
2022-08-18T01:58:07.828Z,13.45
2022-08-18T02:00:36.074Z,13.98
2022-08-18T02:03:09.706Z,12.90
2022-08-18T02:05:42.171Z,14.02
2022-08-18T02:08:12.307Z,14.73
2022-08-18T02:10:40.067Z,12.52
2022-08-18T02:13:07.601Z,13.68
2022-08-18T02:15:34.788Z,14.23
2022-08-18T02:18:01.963Z,13.73
2022-08-18T02:20:29.333Z,13.27
2022-08-18T02:22:58.533Z,13.98
2022-08-18T02:25:25.728Z,14.95
2022-08-18T02:27:53.315Z,14.75
2022-08-18T02:30:20.761Z,13.82
2022-08-18T02:32:48.545Z,13.77
2022-08-18T02:35:15.851Z,15.18
2022-08-18T02:37:47.681Z,14.20
2022-08-18T02:40:16.220Z,14.15
2022-08-18T02:42:45.623Z,14.15
2022-08-18T02:45:14.049Z,14.40
2022-08-18T02:47:43.102Z,14.65
2022-08-18T02:50:13.559Z,14.57
2022-08-18T02:52:41.241Z,14.85
2022-08-18T02:55:09.129Z,15.13
2022-08-18T02:57:36.399Z,15.73
2022-08-18T03:00:04.402Z,14.73
2022-08-18T03:02:32.325Z,15.50
2022-08-18T03:04:59.466Z,15.68
2022-08-18T03:07:26.580Z,15.98
2022-08-18T03:09:53.597Z,16.48
2022-08-18T03:12:20.620Z,15.68
2022-08-18T03:14:47.732Z,16.27
2022-08-18T03:17:15.023Z,15.55
2022-08-18T03:19:44.938Z,15.27
2022-08-18T03:24:57.298Z,15.95
2022-08-18T03:27:25.011Z,16.98
2022-08-18T03:29:52.396Z,18.90
2022-08-18T03:32:19.454Z,18.90
2022-08-18T03:34:46.477Z,16.58
2022-08-18T03:37:15.903Z,14.63
2022-08-18T03:39:43.181Z,14.00
2022-08-18T03:42:10.551Z,16.30
2022-08-18T03:44:37.599Z,15.77
2022-08-18T03:47:10.046Z,16.00
2022-08-18T03:49:38.465Z,16.23
2022-08-18T03:52:09.309Z,16.45
2022-08-18T03:54:38.759Z,15.70
2022-08-18T03:57:09.312Z,16.48
2022-08-18T03:59:36.656Z,14.38
2022-08-18T04:02:05.158Z,17.85
2022-08-18T04:04:32.477Z,16.90
2022-08-18T04:07:06.549Z,16.80
2022-08-18T04:09:35.382Z,18.23
2022-08-18T04:12:16.712Z,17.85
2022-08-18T04:14:48.299Z,17.02
2022-08-18T04:17:24.621Z,18.27
2022-08-18T04:19:53.790Z,16.15
2022-08-18T04:22:21.010Z,15.13
2022-08-18T04:24:50.145Z,14.73
2022-08-18T04:27:19.266Z,14.50
2022-08-18T04:29:47.085Z,15.20
2022-08-18T04:32:14.545Z,15.20
2022-08-18T04:34:41.658Z,16.55
2022-08-18T04:37:09.588Z,16.42
2022-08-18T04:39:37.717Z,15.80
2022-08-18T04:42:05.917Z,14.85
2022-08-18T04:44:34.354Z,15.98
2022-08-18T04:47:02.339Z,16.17
2022-08-18T04:49:31.437Z,17.38
2022-08-18T04:52:36.967Z,16.95
2022-08-18T04:55:04.929Z,17.63
2022-08-18T04:57:34.914Z,16.63
2022-08-18T05:00:04.290Z,16.55
2022-08-18T05:02:33.031Z,16.50
2022-08-18T05:05:01.495Z,16.10
2022-08-18T05:07:30.309Z,15.38
2022-08-18T05:09:57.434Z,16.65
2022-08-18T05:12:26.458Z,16.60
2022-08-18T05:14:56.618Z,17.25
2022-08-18T05:17:28.765Z,16.88
2022-08-18T05:20:00.977Z,17.00
2022-08-18T05:22:31.792Z,16.50
2022-08-18T05:25:00.599Z,16.98
2022-08-18T05:27:32.922Z,17.73
2022-08-18T05:30:00.011Z,18.13
2022-08-18T05:32:47.877Z,17.58
2022-08-18T05:35:23.631Z,19.15
2022-08-18T05:38:06.233Z,20.40
2022-08-18T05:40:34.356Z,20.63
2022-08-18T05:43:03.647Z,20.73
2022-08-18T05:45:30.856Z,21.27
2022-08-18T05:48:02.138Z,22.60
2022-08-18T05:50:32.659Z,24.35
2022-08-18T05:53:10.762Z,28.52
2022-08-18T05:56:05.322Z,24.70
2022-08-18T05:58:44.370Z,24.20
2022-08-18T06:01:20.955Z,25.75
2022-08-18T06:04:01.546Z,24.13
2022-08-18T06:06:30.693Z,21.90
2022-08-18T06:09:17.586Z,25.13
2022-08-18T06:11:45.517Z,24.23
2022-08-18T06:14:13.465Z,24.27
2022-08-18T06:17:09.025Z,22.33
2022-08-18T06:19:52.320Z,25.38
2022-08-18T06:22:36.392Z,22.15
2022-08-18T06:25:37.383Z,21.40
2022-08-18T06:28:09.138Z,20.70
2022-08-18T06:30:41.997Z,19.37
2022-08-18T06:33:33.606Z,20.73
2022-08-18T06:36:32.866Z,18.73
2022-08-18T06:39:16.619Z,20.23
2022-08-18T06:41:48.986Z,19.98
2022-08-18T06:44:39.830Z,20.60
2022-08-18T06:47:09.702Z,19.13
2022-08-18T06:49:46.609Z,19.73
2022-08-18T06:52:25.448Z,20.17
2022-08-18T06:54:54.727Z,20.80
2022-08-18T06:57:35.137Z,22.38
2022-08-18T07:00:08.558Z,21.42
2022-08-18T07:02:45.669Z,22.15
2022-08-18T07:05:20.638Z,20.77
2022-08-18T07:08:10.694Z,23.23
2022-08-18T07:10:41.897Z,22.08
2022-08-18T07:13:18.053Z,24.13
2022-08-18T07:15:45.697Z,23.75
2022-08-18T07:18:14.392Z,25.25
2022-08-18T07:20:55.133Z,22.90
2022-08-18T07:23:25.312Z,24.65
2022-08-18T07:26:00.474Z,21.83
2022-08-18T07:28:31.096Z,24.13
2022-08-18T07:31:35.836Z,26.80
2022-08-18T07:34:14.828Z,29.85
2022-08-18T07:36:51.128Z,28.88
2022-08-18T07:39:31.675Z,29.63
2022-08-18T07:42:11.170Z,29.30
2022-08-18T07:44:59.429Z,28.17
2022-08-18T07:47:37.941Z,26.98
2022-08-18T07:50:31.493Z,27.13
2022-08-18T07:53:15.941Z,28.35
2022-08-18T07:55:53.782Z,26.50
2022-08-18T07:58:30.677Z,26.88
2022-08-18T08:01:16.053Z,27.85
2022-08-18T08:03:58.369Z,27.70
2022-08-18T08:07:06.468Z,27.13
2022-08-18T08:10:16.041Z,31.45
2022-08-18T08:12:50.332Z,28.25
2022-08-18T08:15:32.129Z,27.02
2022-08-18T08:18:10.977Z,28.92
2022-08-18T08:20:45.897Z,27.38
2022-08-18T08:23:31.749Z,29.58
2022-08-18T08:26:02.964Z,28.63
2022-08-18T08:28:39.439Z,27.98
2022-08-18T08:31:37.337Z,26.23
2022-08-18T08:34:19.698Z,27.05
2022-08-18T08:36:48.067Z,27.33
2022-08-18T08:39:28.314Z,26.83
2022-08-18T08:42:29.761Z,26.80
2022-08-18T08:45:03.514Z,25.17
2022-08-18T08:47:39.825Z,23.95
2022-08-18T08:50:18.229Z,26.38
2022-08-18T08:52:58.839Z,24.42
2022-08-18T08:55:32.678Z,26.48
2022-08-18T08:58:28.788Z,26.88
2022-08-18T09:00:57.712Z,27.15
2022-08-18T09:03:46.150Z,25.75
2022-08-18T09:06:19.107Z,26.27
2022-08-18T09:09:04.880Z,27.90
2022-08-18T09:11:51.826Z,28.30
2022-08-18T09:14:30.897Z,27.42
2022-08-18T09:17:40.690Z,27.13
2022-08-18T09:20:26.501Z,23.25
2022-08-18T09:23:03.550Z,28.13
2022-08-18T09:25:39.139Z,28.15
2022-08-18T09:28:17.031Z,27.35
2022-08-18T09:31:15.043Z,27.00
2022-08-18T09:34:10.617Z,26.73
2022-08-18T09:36:59.645Z,29.27
2022-08-18T09:39:54.806Z,27.70
2022-08-18T09:42:59.795Z,26.05
2022-08-18T09:45:51.622Z,25.10
2022-08-18T09:48:28.519Z,25.05
2022-08-18T09:51:41.280Z,22.45
2022-08-18T09:54:13.273Z,25.05
2022-08-18T09:56:55.693Z,22.45
2022-08-18T09:59:35.379Z,20.98
2022-08-18T10:02:14.061Z,21.25
2022-08-18T10:04:50.438Z,22.88
2022-08-18T10:07:41.756Z,22.10
2022-08-18T10:13:39.089Z,18.73
2022-08-18T10:20:08.860Z,21.10
2022-08-18T10:22:54.760Z,23.33
2022-08-18T10:25:41.177Z,22.15
2022-08-18T10:28:12.662Z,21.02
2022-08-18T10:30:56.258Z,21.65
2022-08-18T10:34:19.316Z,22.73
2022-08-18T10:36:58.851Z,20.13
2022-08-18T10:39:39.677Z,19.65
2022-08-18T10:42:32.325Z,20.75
2022-08-18T10:46:12.993Z,19.40
2022-08-18T10:48:40.077Z,20.10
2022-08-18T10:51:21.685Z,21.38
2022-08-18T10:54:03.495Z,20.98
2022-08-18T10:56:54.337Z,22.13
2022-08-18T11:03:01.885Z,19.17
2022-08-18T11:05:31.874Z,18.17
2022-08-18T11:08:04.625Z,19.88
2022-08-18T11:13:40.816Z,18.55
2022-08-18T11:16:26.480Z,17.73
2022-08-18T11:19:03.696Z,17.15
2022-08-18T11:21:42.076Z,16.65
2022-08-18T11:24:17.734Z,15.52
2022-08-18T11:26:55.664Z,14.15
2022-08-18T11:29:41.068Z,14.68
2022-08-18T11:32:22.132Z,16.25
2022-08-18T11:34:53.941Z,16.43
2022-08-18T11:37:49.041Z,14.52
2022-08-18T11:43:41.121Z,12.93
2022-08-18T11:51:35.964Z,12.27
2022-08-18T11:54:12.523Z,11.55
2022-08-18T11:56:39.574Z,12.00
2022-08-18T11:59:53.606Z,12.20
2022-08-18T12:02:25.284Z,12.93
2022-08-18T12:05:10.168Z,12.10
2022-08-18T12:07:45.360Z,11.88
2022-08-18T12:10:29.029Z,12.10
2022-08-18T12:13:00.345Z,11.93
2022-08-18T12:15:43.419Z,12.18
2022-08-18T12:18:18.943Z,10.70
2022-08-18T12:20:55.279Z,12.13
2022-08-18T12:23:22.275Z,11.13
2022-08-18T12:25:51.830Z,12.23
2022-08-18T12:28:22.122Z,10.68
2022-08-18T12:33:48.171Z,11.45
2022-08-18T12:36:25.000Z,11.05
2022-08-18T12:38:57.102Z,10.93
2022-08-18T12:41:24.388Z,10.07
2022-08-18T12:46:42.963Z,10.63
2022-08-18T12:49:19.735Z,9.85
2022-08-18T12:51:50.429Z,10.40
2022-08-18T12:54:18.719Z,11.63
2022-08-18T12:56:51.496Z,10.75
2022-08-18T12:59:18.956Z,9.90
2022-08-18T13:01:46.715Z,10.02
2022-08-18T13:04:15.487Z,10.18
2022-08-18T13:07:00.743Z,11.00
2022-08-18T13:09:47.939Z,9.32
2022-08-18T13:12:18.872Z,9.57
2022-08-18T13:14:47.496Z,9.55
2022-08-18T13:17:32.113Z,9.77
2022-08-18T13:20:14.386Z,9.82
2022-08-18T13:22:42.345Z,10.50
2022-08-18T13:25:28.821Z,9.98
2022-08-18T13:28:00.610Z,10.02
2022-08-18T13:30:32.139Z,9.02
2022-08-18T13:33:05.344Z,10.52
2022-08-18T13:35:52.453Z,10.93
2022-08-18T13:38:27.204Z,11.73
2022-08-18T13:40:58.649Z,12.20
2022-08-18T13:43:39.302Z,10.80
2022-08-18T13:46:09.202Z,11.65
2022-08-18T13:48:38.521Z,11.27
2022-08-18T13:51:08.661Z,10.77
2022-08-18T13:53:50.563Z,12.15
2022-08-18T13:56:30.966Z,11.52
2022-08-18T13:58:59.377Z,11.73
2022-08-18T14:01:51.359Z,10.38
2022-08-18T14:04:20.559Z,12.43
2022-08-18T14:06:56.135Z,11.35
2022-08-18T14:09:36.377Z,11.55
2022-08-18T14:12:21.765Z,10.85
2022-08-18T14:14:53.086Z,11.68
2022-08-18T14:17:22.614Z,10.48
2022-08-18T14:20:15.423Z,11.07
2022-08-18T14:23:10.376Z,9.60
2022-08-18T14:25:56.181Z,11.52
2022-08-18T14:28:24.537Z,12.25
2022-08-18T14:30:54.664Z,11.30
2022-08-18T14:33:27.186Z,11.43
2022-08-18T14:36:06.447Z,11.20
2022-08-18T14:38:38.190Z,11.80
2022-08-18T14:41:07.745Z,11.15
2022-08-18T14:44:12.693Z,10.93
2022-08-18T14:46:23.704Z,11.45
2022-08-18T14:48:57.465Z,10.82
2022-08-18T14:51:27.064Z,10.73
2022-08-18T14:53:55.299Z,10.90
2022-08-18T14:56:24.466Z,10.93
2022-08-18T14:58:56.785Z,11.10
2022-08-18T15:01:24.451Z,11.68
2022-08-18T15:03:51.633Z,11.75
2022-08-18T15:06:27.137Z,10.02
2022-08-18T15:08:57.090Z,9.18
2022-08-18T15:11:25.073Z,11.38
2022-08-18T15:13:55.166Z,9.70
2022-08-18T15:16:31.632Z,10.90
2022-08-18T15:19:00.475Z,9.55
2022-08-18T15:21:47.827Z,9.23
2022-08-18T15:24:37.647Z,11.65
2022-08-18T15:27:10.418Z,12.13
2022-08-18T15:29:46.441Z,10.25
2022-08-18T15:32:15.266Z,11.20
2022-08-18T15:34:46.134Z,9.70
2022-08-18T15:37:19.397Z,10.93
2022-08-18T15:39:51.910Z,11.18
2022-08-18T15:42:23.555Z,10.10
2022-08-18T15:44:53.574Z,10.02
2022-08-18T15:47:22.159Z,10.85
2022-08-18T15:49:52.536Z,11.60
2022-08-18T15:52:26.020Z,12.05
2022-08-18T15:54:56.948Z,10.55
2022-08-18T15:57:39.151Z,10.55
2022-08-18T16:00:08.184Z,11.23
2022-08-18T16:05:09.061Z,10.60
2022-08-18T16:07:41.107Z,10.98
2022-08-18T16:10:13.376Z,10.65
2022-08-18T16:12:40.985Z,10.02
2022-08-18T16:15:19.825Z,11.20
2022-08-18T16:17:53.299Z,11.80
2022-08-18T16:20:23.882Z,10.27
2022-08-18T16:22:52.582Z,11.13
2022-08-18T16:25:20.674Z,10.55
2022-08-18T16:27:48.082Z,10.45
2022-08-18T16:30:22.662Z,10.20
2022-08-18T16:32:50.820Z,11.30
2022-08-18T16:35:18.980Z,10.85
2022-08-18T16:37:49.077Z,10.30
2022-08-18T16:40:18.807Z,11.38
2022-08-18T16:42:46.845Z,11.68
2022-08-18T16:45:14.970Z,12.50
2022-08-18T16:47:42.030Z,10.68
2022-08-18T16:50:14.676Z,10.23
2022-08-18T16:52:41.857Z,11.48
2022-08-18T16:55:11.190Z,11.18
2022-08-18T16:57:58.735Z,10.77
2022-08-18T17:00:45.246Z,10.45
2022-08-18T17:03:31.605Z,10.85
2022-08-18T17:06:04.987Z,10.98
2022-08-18T17:08:35.342Z,10.57
2022-08-18T17:11:04.456Z,10.57
2022-08-18T17:13:33.503Z,11.73
2022-08-18T17:16:00.672Z,10.43
2022-08-18T17:18:29.432Z,10.90
2022-08-18T17:21:01.159Z,11.45
2022-08-18T17:23:28.297Z,10.90
2022-08-18T17:25:56.203Z,12.13
2022-08-18T17:28:29.963Z,11.15
2022-08-18T17:30:59.292Z,12.57
2022-08-18T17:33:31.124Z,10.63
2022-08-18T17:36:04.033Z,11.48
2022-08-18T17:38:49.367Z,13.05
2022-08-18T17:41:18.605Z,13.50
2022-08-18T17:43:46.045Z,12.57
2022-08-18T17:46:26.895Z,12.50
2022-08-18T17:49:02.151Z,11.93
2022-08-18T17:51:44.331Z,12.82
2022-08-18T17:54:17.886Z,13.15
2022-08-18T17:56:52.558Z,12.73
2022-08-18T17:59:46.124Z,12.80
2022-08-18T18:02:29.334Z,12.95
2022-08-18T18:04:59.917Z,12.88
2022-08-18T18:07:35.498Z,14.35
2022-08-18T18:10:05.464Z,13.20
2022-08-18T18:12:35.641Z,13.93
2022-08-18T18:15:10.081Z,12.98
2022-08-18T18:17:40.408Z,14.18
2022-08-18T18:20:12.172Z,14.80
2022-08-18T18:22:44.450Z,12.77
2022-08-18T18:25:13.424Z,13.52
2022-08-18T18:27:43.633Z,12.77
2022-08-18T18:30:27.557Z,13.48
2022-08-18T18:32:58.762Z,12.05
2022-08-18T18:35:31.031Z,13.25
2022-08-18T18:38:04.264Z,12.13
2022-08-18T18:40:41.228Z,12.85
2022-08-18T18:43:28.982Z,14.10
2022-08-18T18:46:04.870Z,14.30
2022-08-18T18:48:52.137Z,17.77
2022-08-18T18:51:33.951Z,14.25
2022-08-18T18:54:50.001Z,15.65
2022-08-18T18:57:30.065Z,14.60
2022-08-18T19:00:16.792Z,14.13
2022-08-18T19:02:46.862Z,14.35
2022-08-18T19:05:24.844Z,13.63
2022-08-18T19:08:05.268Z,14.90
2022-08-18T19:10:44.063Z,13.80
2022-08-18T19:13:26.823Z,13.68
2022-08-18T19:16:23.557Z,14.25
2022-08-18T19:19:35.383Z,14.13
2022-08-18T19:22:05.712Z,14.25
2022-08-18T19:24:38.616Z,15.52
2022-08-18T19:27:12.054Z,14.95
2022-08-18T19:29:43.534Z,13.48
2022-08-18T19:32:16.851Z,15.07
2022-08-18T19:34:51.425Z,15.40
2022-08-18T19:37:53.785Z,14.18
2022-08-18T19:40:32.953Z,14.90
2022-08-18T19:43:11.348Z,13.68
2022-08-18T19:45:58.702Z,14.07
2022-08-18T19:48:32.038Z,14.63
2022-08-18T19:51:47.698Z,15.45
2022-08-18T19:54:39.949Z,14.77
2022-08-18T19:57:32.895Z,14.07
2022-08-18T20:03:18.424Z,14.32
2022-08-18T20:05:52.858Z,15.65
2022-08-18T20:08:36.573Z,14.93
2022-08-18T20:11:03.585Z,14.30
2022-08-18T20:13:35.218Z,14.57
2022-08-18T20:16:02.198Z,16.23
2022-08-18T20:18:34.422Z,13.82
2022-08-18T20:21:22.519Z,15.43
2022-08-18T20:24:02.770Z,15.52
2022-08-18T20:26:38.650Z,16.48
2022-08-18T20:29:06.383Z,14.10
2022-08-18T20:31:49.089Z,15.32
2022-08-18T20:36:47.485Z,14.75
2022-08-18T20:39:41.076Z,16.48
2022-08-18T20:42:37.230Z,16.35
2022-08-18T20:45:10.308Z,15.90
2022-08-18T20:48:00.545Z,17.02
2022-08-18T20:50:57.439Z,17.10
2022-08-18T20:53:49.786Z,16.27
2022-08-18T20:59:19.973Z,17.38
2022-08-18T21:04:53.073Z,16.02
2022-08-18T21:07:36.544Z,19.05
2022-08-18T21:10:12.958Z,16.70
2022-08-18T21:12:51.701Z,16.05
2022-08-18T21:15:26.431Z,15.70
2022-08-18T21:18:02.259Z,16.88
2022-08-18T21:20:31.336Z,15.82
2022-08-18T21:23:06.317Z,16.38
2022-08-18T21:25:34.047Z,17.25
2022-08-18T21:28:03.796Z,17.02
2022-08-18T21:30:31.884Z,16.60
2022-08-18T21:32:58.961Z,17.63
2022-08-18T21:35:29.982Z,17.05
2022-08-18T21:38:03.520Z,18.35
2022-08-18T21:40:36.308Z,18.20
2022-08-18T21:43:03.511Z,17.63
2022-08-18T21:45:31.705Z,18.58
2022-08-18T21:48:04.502Z,18.23
2022-08-18T21:50:34.593Z,18.65
2022-08-18T21:53:14.510Z,17.38
2022-08-18T21:55:54.915Z,18.50
2022-08-18T21:58:45.150Z,17.63
2022-08-18T22:01:20.492Z,17.10
2022-08-18T22:03:49.216Z,18.08
2022-08-18T22:06:33.498Z,17.67
2022-08-18T22:09:39.363Z,17.60
2022-08-18T22:12:47.869Z,17.98
2022-08-18T22:15:24.237Z,19.00
2022-08-18T22:17:59.569Z,17.42
2022-08-18T22:20:51.148Z,18.13
2022-08-18T22:23:51.836Z,17.70
2022-08-18T22:26:37.065Z,17.60
2022-08-18T22:29:08.122Z,17.85
2022-08-18T22:31:38.492Z,17.38
2022-08-18T22:34:10.024Z,17.45
2022-08-18T22:36:40.775Z,17.60
2022-08-18T22:39:10.886Z,17.45
2022-08-18T22:41:39.253Z,16.67
2022-08-18T22:44:07.291Z,18.13
2022-08-18T22:46:34.906Z,18.90
2022-08-18T22:49:03.827Z,18.63
2022-08-18T22:51:32.764Z,18.85
2022-08-18T22:53:59.804Z,20.00
2022-08-18T22:56:35.063Z,19.50
2022-08-18T22:59:13.765Z,18.40
2022-08-18T23:01:50.070Z,18.67
2022-08-18T23:04:20.140Z,18.73
2022-08-18T23:06:53.749Z,19.10
2022-08-18T23:09:30.441Z,18.70
2022-08-18T23:12:15.892Z,18.17
2022-08-18T23:14:46.237Z,18.00
2022-08-18T23:17:14.201Z,17.88
2022-08-18T23:19:42.596Z,17.98
2022-08-18T23:22:10.573Z,18.90
2022-08-18T23:24:38.452Z,18.27
2022-08-18T23:27:06.605Z,18.23
2022-08-18T23:29:37.390Z,18.90
2022-08-18T23:32:06.861Z,18.80
2022-08-18T23:34:35.023Z,19.63
2022-08-18T23:37:03.549Z,18.50
2022-08-18T23:39:33.043Z,18.05
2022-08-18T23:42:01.629Z,19.15
2022-08-18T23:44:29.300Z,19.52
2022-08-18T23:46:58.065Z,18.25
2022-08-18T23:49:29.008Z,18.63
2022-08-18T23:51:57.718Z,18.30
2022-08-18T23:54:27.819Z,18.30
2022-08-18T23:56:55.121Z,18.15
2022-08-18T23:59:27.027Z,18.23
